sensor_id;sensor_type;location;lat;lon;timestamp;P1;durP1;ratioP1;P2;durP2;ratioP2
57249;SDS011;43102;52.014;-0.680;2022-12-18T00:00:00;32.10;;;17.40;;
57249;SDS011;43102;52.014;-0.680;2022-12-18T00:01:12;32.10;;;17.40;;
57249;SDS011;43102;52.014;-0.680;2022-12-18T00:02:00;32.10;;;17.40;;
57249;SDS011;43102;52.014;-0.680;2022-12-18T00:03:00;32.10;;;17.40;;
57249;SDS011;43102;52.014;-0.680;2022-12-18T00:04:02;32.10;;;17.40;;
57249;SDS011;43102;52.014;-0.680;2022-12-18T00:05:00;32.10;;;17.40;;
57249;SDS011;43102;52.014;-0.680;2022-12-18T00:06:00;32.10;;;17.40;;
57249;SDS011;43102;52.014;-0.680;2022-12-18T00:07:00;32.10;;;17.40;;
57249;SDS011;43102;52.014;-0.680;2022-12-18T00:08:02;32.10;;;17.40;;
57249;SDS011;43102;52.014;-0.680;2022-12-18T00:09:00;32.10;;;17.40;;
57249;SDS011;43102;52.014;-0.680;2022-12-18T00:10:00;32.10;;;17.40;;
57249;SDS011;43102;52.014;-0.680;2022-12-18T00:11:10;32.10;;;17.40;;
57249;SDS011;43102;52.014;-0.680;2022-12-18T00:12:10;32.10;;;17.40;;
57249;SDS011;43102;52.014;-0.680;2022-12-18T00:13:06;32.10;;;17.40;;
57249;SDS011;43102;52.014;-0.680;2022-12-18T00:14:00;32.10;;;17.40;;
57249;SDS011;43102;52.014;-0.680;2022-12-18T00:15:00;32.10;;;17.40;;
57249;SDS011;43102;52.014;-0.680;2022-12-18T00:16:07;32.10;;;17.40;;
57249;SDS011;43102;52.014;-0.680;2022-12-18T00:17:00;32.10;;;17.40;;
57249;SDS011;43102;52.014;-0.680;2022-12-18T00:18:00;32.10;;;17.40;;
57249;SDS011;43102;52.014;-0.680;2022-12-18T00:19:01;32.10;;;17.40;;
57249;SDS011;43102;52.014;-0.680;2022-12-18T00:20:00;32.10;;;17.40;;
57249;SDS011;43102;52.014;-0.680;2022-12-18T00:21:02;26.90;;;15.70;;
57249;SDS011;43102;52.014;-0.680;2022-12-18T00:22:00;26.90;;;15.70;;
57249;SDS011;43102;52.014;-0.680;2022-12-18T00:23:00;26.90;;;15.70;;
57249;SDS011;43102;52.014;-0.680;2022-12-18T00:24:00;26.90;;;15.70;;
57249;SDS011;43102;52.014;-0.680;2022-12-18T00:25:00;26.90;;;15.70;;
57249;SDS011;43102;52.014;-0.680;2022-12-18T00:26:01;26.90;;;15.70;;
57249;SDS011;43102;52.014;-0.680;2022-12-18T00:27:00;26.90;;;15.70;;
57249;SDS011;43102;52.014;-0.680;2022-12-18T00:28:00;26.90;;;15.70;;
57249;SDS011;43102;52.014;-0.680;2022-12-18T00:29:04;26.90;;;15.70;;
57249;SDS011;43102;52.014;-0.680;2022-12-18T00:30:00;26.90;;;15.70;;
57249;SDS011;43102;52.014;-0.680;2022-12-18T00:31:04;26.90;;;15.70;;
57249;SDS011;43102;52.014;-0.680;2022-12-18T00:32:00;26.90;;;15.70;;
57249;SDS011;43102;52.014;-0.680;2022-12-18T00:33:00;26.90;;;15.70;;
57249;SDS011;43102;52.014;-0.680;2022-12-18T00:34:01;26.90;;;15.70;;
57249;SDS011;43102;52.014;-0.680;2022-12-18T00:35:00;26.90;;;15.70;;
57249;SDS011;43102;52.014;-0.680;2022-12-18T00:36:02;26.90;;;15.70;;
57249;SDS011;43102;52.014;-0.680;2022-12-18T00:37:00;26.90;;;15.70;;
57249;SDS011;43102;52.014;-0.680;2022-12-18T00:38:00;26.90;;;15.70;;
57249;SDS011;43102;52.014;-0.680;2022-12-18T00:39:02;26.90;;;15.70;;
57249;SDS011;43102;52.014;-0.680;2022-12-18T00:40:00;26.90;;;15.70;;
57249;SDS011;43102;52.014;-0.680;2022-12-18T00:41:00;26.90;;;15.70;;
57249;SDS011;43102;52.014;-0.680;2022-12-18T00:42:10;26.90;;;15.70;;
57249;SDS011;43102;52.014;-0.680;2022-12-18T00:43:00;26.90;;;15.70;;
57249;SDS011;43102;52.014;-0.680;2022-12-18T00:44:00;26.90;;;15.70;;
57249;SDS011;43102;52.014;-0.680;2022-12-18T00:45:00;26.90;;;15.70;;
57249;SDS011;43102;52.014;-0.680;2022-12-18T00:46:00;26.90;;;15.70;;
57249;SDS011;43102;52.014;-0.680;2022-12-18T00:47:01;26.90;;;15.70;;
57249;SDS011;43102;52.014;-0.680;2022-12-18T00:48:00;26.90;;;15.70;;
57249;SDS011;43102;52.014;-0.680;2022-12-18T00:49:00;26.90;;;15.70;;
57249;SDS011;43102;52.014;-0.680;2022-12-18T00:50:00;26.90;;;15.70;;
57249;SDS011;43102;52.014;-0.680;2022-12-18T00:51:00;29.10;;;15.70;;
57249;SDS011;43102;52.014;-0.680;2022-12-18T00:52:00;29.10;;;15.70;;
57249;SDS011;43102;52.014;-0.680;2022-12-18T00:53:00;29.10;;;15.70;;
57249;SDS011;43102;52.014;-0.680;2022-12-18T00:54:00;29.10;;;15.70;;
57249;SDS011;43102;52.014;-0.680;2022-12-18T00:55:06;29.10;;;15.70;;
57249;SDS011;43102;52.014;-0.680;2022-12-18T00:56:00;29.10;;;15.70;;
57249;SDS011;43102;52.014;-0.680;2022-12-18T00:57:00;29.10;;;15.70;;
57249;SDS011;43102;52.014;-0.680;2022-12-18T00:58:00;29.10;;;15.70;;
57249;SDS011;43102;52.014;-0.680;2022-12-18T00:59:00;29.10;;;15.70;;
57249;SDS011;43102;52.014;-0.680;2022-12-18T01:00:00;29.10;;;15.70;;
57249;SDS011;43102;52.014;-0.680;2022-12-18T01:01:00;29.10;;;15.70;;
57249;SDS011;43102;52.014;-0.680;2022-12-18T01:02:00;29.10;;;15.70;;
57249;SDS011;43102;52.014;-0.680;2022-12-18T01:03:00;29.10;;;15.70;;
57249;SDS011;43102;52.014;-0.680;2022-12-18T01:04:02;29.10;;;15.70;;
57249;SDS011;43102;52.014;-0.680;2022-12-18T01:05:00;29.10;;;15.70;;
57249;SDS011;43102;52.014;-0.680;2022-12-18T01:06:05;29.10;;;15.70;;
57249;SDS011;43102;52.014;-0.680;2022-12-18T01:07:00;29.10;;;15.70;;
57249;SDS011;43102;52.014;-0.680;2022-12-18T01:08:00;29.10;;;15.70;;
57249;SDS011;43102;52.014;-0.680;2022-12-18T01:09:00;29.10;;;15.70;;
57249;SDS011;43102;52.014;-0.680;2022-12-18T01:10:00;29.10;;;15.70;;
57249;SDS011;43102;52.014;-0.680;2022-12-18T01:11:06;29.10;;;15.70;;
57249;SDS011;43102;52.014;-0.680;2022-12-18T01:12:00;29.10;;;15.70;;
57249;SDS011;43102;52.014;-0.680;2022-12-18T01:13:00;29.10;;;15.70;;
57249;SDS011;43102;52.014;-0.680;2022-12-18T01:14:00;29.10;;;15.70;;
57249;SDS011;43102;52.014;-0.680;2022-12-18T01:15:00;29.10;;;15.70;;
57249;SDS011;43102;52.014;-0.680;2022-12-18T01:16:00;29.10;;;15.70;;
57249;SDS011;43102;52.014;-0.680;2022-12-18T01:17:02;29.10;;;15.70;;
57249;SDS011;43102;52.014;-0.680;2022-12-18T01:18:00;29.10;;;15.70;;
57249;SDS011;43102;52.014;-0.680;2022-12-18T01:19:00;29.10;;;15.70;;
57249;SDS011;43102;52.014;-0.680;2022-12-18T01:20:00;29.10;;;15.70;;
57249;SDS011;43102;52.014;-0.680;2022-12-18T01:21:00;33.20;;;19.00;;
57249;SDS011;43102;52.014;-0.680;2022-12-18T01:22:00;33.20;;;19.00;;
57249;SDS011;43102;52.014;-0.680;2022-12-18T01:23:00;33.20;;;19.00;;
57249;SDS011;43102;52.014;-0.680;2022-12-18T01:24:00;33.20;;;19.00;;
57249;SDS011;43102;52.014;-0.680;2022-12-18T01:25:00;33.20;;;19.00;;
57249;SDS011;43102;52.014;-0.680;2022-12-18T01:26:11;33.20;;;19.00;;
57249;SDS011;43102;52.014;-0.680;2022-12-18T01:27:00;33.20;;;19.00;;
57249;SDS011;43102;52.014;-0.680;2022-12-18T01:28:00;33.20;;;19.00;;
57249;SDS011;43102;52.014;-0.680;2022-12-18T01:29:00;33.20;;;19.00;;
57249;SDS011;43102;52.014;-0.680;2022-12-18T01:30:00;33.20;;;19.00;;
57249;SDS011;43102;52.014;-0.680;2022-12-18T01:31:26;33.20;;;19.00;;
57249;SDS011;43102;52.014;-0.680;2022-12-18T01:32:00;33.20;;;19.00;;
57249;SDS011;43102;52.014;-0.680;2022-12-18T01:33:00;33.20;;;19.00;;
57249;SDS011;43102;52.014;-0.680;2022-12-18T01:34:02;33.20;;;19.00;;
57249;SDS011;43102;52.014;-0.680;2022-12-18T01:35:00;33.20;;;19.00;;
57249;SDS011;43102;52.014;-0.680;2022-12-18T01:36:00;33.20;;;19.00;;
57249;SDS011;43102;52.014;-0.680;2022-12-18T01:37:02;33.20;;;19.00;;
57249;SDS011;43102;52.014;-0.680;2022-12-18T01:38:00;33.20;;;19.00;;
57249;SDS011;43102;52.014;-0.680;2022-12-18T01:39:03;33.20;;;19.00;;
57249;SDS011;43102;52.014;-0.680;2022-12-18T01:40:00;33.20;;;19.00;;
57249;SDS011;43102;52.014;-0.680;2022-12-18T01:41:01;33.20;;;19.00;;
57249;SDS011;43102;52.014;-0.680;2022-12-18T01:42:02;33.20;;;19.00;;
57249;SDS011;43102;52.014;-0.680;2022-12-18T01:43:00;33.20;;;19.00;;
57249;SDS011;43102;52.014;-0.680;2022-12-18T01:44:00;33.20;;;19.00;;
57249;SDS011;43102;52.014;-0.680;2022-12-18T01:45:03;33.20;;;19.00;;
57249;SDS011;43102;52.014;-0.680;2022-12-18T01:46:00;33.20;;;19.00;;
57249;SDS011;43102;52.014;-0.680;2022-12-18T01:47:00;33.20;;;19.00;;
57249;SDS011;43102;52.014;-0.680;2022-12-18T01:48:06;33.20;;;19.00;;
57249;SDS011;43102;52.014;-0.680;2022-12-18T01:49:01;33.20;;;19.00;;
57249;SDS011;43102;52.014;-0.680;2022-12-18T01:50:05;33.20;;;19.00;;
57249;SDS011;43102;52.014;-0.680;2022-12-18T01:51:01;33.00;;;17.70;;
57249;SDS011;43102;52.014;-0.680;2022-12-18T01:52:00;33.00;;;17.70;;
57249;SDS011;43102;52.014;-0.680;2022-12-18T01:54:00;33.00;;;17.70;;
57249;SDS011;43102;52.014;-0.680;2022-12-18T01:55:03;33.00;;;17.70;;
57249;SDS011;43102;52.014;-0.680;2022-12-18T01:56:00;33.00;;;17.70;;
57249;SDS011;43102;52.014;-0.680;2022-12-18T01:57:00;33.00;;;17.70;;
57249;SDS011;43102;52.014;-0.680;2022-12-18T01:58:00;33.00;;;17.70;;
57249;SDS011;43102;52.014;-0.680;2022-12-18T01:59:03;33.00;;;17.70;;
57249;SDS011;43102;52.014;-0.680;2022-12-18T02:00:06;33.00;;;17.70;;
57249;SDS011;43102;52.014;-0.680;2022-12-18T02:01:00;33.00;;;17.70;;
57249;SDS011;43102;52.014;-0.680;2022-12-18T02:02:00;33.00;;;17.70;;
57249;SDS011;43102;52.014;-0.680;2022-12-18T02:03:00;33.00;;;17.70;;
57249;SDS011;43102;52.014;-0.680;2022-12-18T02:04:17;33.00;;;17.70;;
57249;SDS011;43102;52.014;-0.680;2022-12-18T02:05:00;33.00;;;17.70;;
57249;SDS011;43102;52.014;-0.680;2022-12-18T02:06:26;33.00;;;17.70;;
57249;SDS011;43102;52.014;-0.680;2022-12-18T02:07:17;33.00;;;17.70;;
57249;SDS011;43102;52.014;-0.680;2022-12-18T02:09:12;33.00;;;17.70;;
57249;SDS011;43102;52.014;-0.680;2022-12-18T02:10:07;33.00;;;17.70;;
57249;SDS011;43102;52.014;-0.680;2022-12-18T02:11:11;33.00;;;17.70;;
57249;SDS011;43102;52.014;-0.680;2022-12-18T02:13:15;33.00;;;17.70;;
57249;SDS011;43102;52.014;-0.680;2022-12-18T02:14:21;33.00;;;17.70;;
57249;SDS011;43102;52.014;-0.680;2022-12-18T02:15:09;33.00;;;17.70;;
57249;SDS011;43102;52.014;-0.680;2022-12-18T02:16:03;33.00;;;17.70;;
57249;SDS011;43102;52.014;-0.680;2022-12-18T02:17:14;33.00;;;17.70;;
57249;SDS011;43102;52.014;-0.680;2022-12-18T02:18:08;33.00;;;17.70;;
57249;SDS011;43102;52.014;-0.680;2022-12-18T02:19:09;33.00;;;17.70;;
57249;SDS011;43102;52.014;-0.680;2022-12-18T02:20:17;33.00;;;17.70;;
57249;SDS011;43102;52.014;-0.680;2022-12-18T02:24:23;30.60;;;15.90;;
57249;SDS011;43102;52.014;-0.680;2022-12-18T02:27:05;30.60;;;15.90;;
57249;SDS011;43102;52.014;-0.680;2022-12-18T02:28:03;30.60;;;15.90;;
57249;SDS011;43102;52.014;-0.680;2022-12-18T02:29:04;30.60;;;15.90;;
57249;SDS011;43102;52.014;-0.680;2022-12-18T02:30:01;30.60;;;15.90;;
57249;SDS011;43102;52.014;-0.680;2022-12-18T02:31:03;30.60;;;15.90;;
57249;SDS011;43102;52.014;-0.680;2022-12-18T02:32:02;30.60;;;15.90;;
57249;SDS011;43102;52.014;-0.680;2022-12-18T02:33:01;30.60;;;15.90;;
57249;SDS011;43102;52.014;-0.680;2022-12-18T02:34:03;30.60;;;15.90;;
57249;SDS011;43102;52.014;-0.680;2022-12-18T02:35:02;30.60;;;15.90;;
57249;SDS011;43102;52.014;-0.680;2022-12-18T02:36:01;30.60;;;15.90;;
57249;SDS011;43102;52.014;-0.680;2022-12-18T02:37:04;30.60;;;15.90;;
57249;SDS011;43102;52.014;-0.680;2022-12-18T02:38:02;30.60;;;15.90;;
57249;SDS011;43102;52.014;-0.680;2022-12-18T02:39:02;30.60;;;15.90;;
57249;SDS011;43102;52.014;-0.680;2022-12-18T02:40:01;30.60;;;15.90;;
57249;SDS011;43102;52.014;-0.680;2022-12-18T02:41:00;30.60;;;15.90;;
57249;SDS011;43102;52.014;-0.680;2022-12-18T02:42:07;30.60;;;15.90;;
57249;SDS011;43102;52.014;-0.680;2022-12-18T02:43:07;30.60;;;15.90;;
57249;SDS011;43102;52.014;-0.680;2022-12-18T02:44:06;30.60;;;15.90;;
57249;SDS011;43102;52.014;-0.680;2022-12-18T02:45:00;30.60;;;15.90;;
57249;SDS011;43102;52.014;-0.680;2022-12-18T02:46:21;30.60;;;15.90;;
57249;SDS011;43102;52.014;-0.680;2022-12-18T02:47:00;30.60;;;15.90;;
57249;SDS011;43102;52.014;-0.680;2022-12-18T02:48:00;30.60;;;15.90;;
57249;SDS011;43102;52.014;-0.680;2022-12-18T02:49:12;30.60;;;15.90;;
57249;SDS011;43102;52.014;-0.680;2022-12-18T02:50:08;30.60;;;15.90;;
57249;SDS011;43102;52.014;-0.680;2022-12-18T02:51:08;28.60;;;15.60;;
57249;SDS011;43102;52.014;-0.680;2022-12-18T02:54:09;28.60;;;15.60;;
57249;SDS011;43102;52.014;-0.680;2022-12-18T02:56:15;28.60;;;15.60;;
57249;SDS011;43102;52.014;-0.680;2022-12-18T02:57:10;28.60;;;15.60;;
57249;SDS011;43102;52.014;-0.680;2022-12-18T02:59:13;28.60;;;15.60;;
57249;SDS011;43102;52.014;-0.680;2022-12-18T03:01:03;28.60;;;15.60;;
57249;SDS011;43102;52.014;-0.680;2022-12-18T03:02:10;28.60;;;15.60;;
57249;SDS011;43102;52.014;-0.680;2022-12-18T03:04:05;28.60;;;15.60;;
57249;SDS011;43102;52.014;-0.680;2022-12-18T03:05:08;28.60;;;15.60;;
57249;SDS011;43102;52.014;-0.680;2022-12-18T03:06:08;28.60;;;15.60;;
57249;SDS011;43102;52.014;-0.680;2022-12-18T03:07:04;28.60;;;15.60;;
57249;SDS011;43102;52.014;-0.680;2022-12-18T03:08:07;28.60;;;15.60;;
57249;SDS011;43102;52.014;-0.680;2022-12-18T03:09:04;28.60;;;15.60;;
57249;SDS011;43102;52.014;-0.680;2022-12-18T03:10:01;28.60;;;15.60;;
57249;SDS011;43102;52.014;-0.680;2022-12-18T03:11:03;28.60;;;15.60;;
57249;SDS011;43102;52.014;-0.680;2022-12-18T03:13:05;28.60;;;15.60;;
57249;SDS011;43102;52.014;-0.680;2022-12-18T03:14:00;28.60;;;15.60;;
57249;SDS011;43102;52.014;-0.680;2022-12-18T03:15:07;28.60;;;15.60;;
57249;SDS011;43102;52.014;-0.680;2022-12-18T03:16:01;28.60;;;15.60;;
57249;SDS011;43102;52.014;-0.680;2022-12-18T03:17:05;28.60;;;15.60;;
57249;SDS011;43102;52.014;-0.680;2022-12-18T03:18:05;28.60;;;15.60;;
57249;SDS011;43102;52.014;-0.680;2022-12-18T03:19:05;28.60;;;15.60;;
57249;SDS011;43102;52.014;-0.680;2022-12-18T03:20:06;28.60;;;15.60;;
57249;SDS011;43102;52.014;-0.680;2022-12-18T03:21:04;32.70;;;17.70;;
57249;SDS011;43102;52.014;-0.680;2022-12-18T03:22:02;32.70;;;17.70;;
57249;SDS011;43102;52.014;-0.680;2022-12-18T03:23:06;32.70;;;17.70;;
57249;SDS011;43102;52.014;-0.680;2022-12-18T03:24:00;32.70;;;17.70;;
57249;SDS011;43102;52.014;-0.680;2022-12-18T03:25:04;32.70;;;17.70;;
57249;SDS011;43102;52.014;-0.680;2022-12-18T03:26:09;32.70;;;17.70;;
57249;SDS011;43102;52.014;-0.680;2022-12-18T03:27:02;32.70;;;17.70;;
57249;SDS011;43102;52.014;-0.680;2022-12-18T03:28:02;32.70;;;17.70;;
57249;SDS011;43102;52.014;-0.680;2022-12-18T03:29:03;32.70;;;17.70;;
57249;SDS011;43102;52.014;-0.680;2022-12-18T03:30:08;32.70;;;17.70;;
57249;SDS011;43102;52.014;-0.680;2022-12-18T03:31:01;32.70;;;17.70;;
57249;SDS011;43102;52.014;-0.680;2022-12-18T03:32:05;32.70;;;17.70;;
57249;SDS011;43102;52.014;-0.680;2022-12-18T03:33:10;32.70;;;17.70;;
57249;SDS011;43102;52.014;-0.680;2022-12-18T03:34:04;32.70;;;17.70;;
57249;SDS011;43102;52.014;-0.680;2022-12-18T03:35:03;32.70;;;17.70;;
57249;SDS011;43102;52.014;-0.680;2022-12-18T03:36:00;32.70;;;17.70;;
57249;SDS011;43102;52.014;-0.680;2022-12-18T03:37:01;32.70;;;17.70;;
57249;SDS011;43102;52.014;-0.680;2022-12-18T03:38:00;32.70;;;17.70;;
57249;SDS011;43102;52.014;-0.680;2022-12-18T03:39:00;32.70;;;17.70;;
57249;SDS011;43102;52.014;-0.680;2022-12-18T03:40:00;32.70;;;17.70;;
57249;SDS011;43102;52.014;-0.680;2022-12-18T03:41:15;32.70;;;17.70;;
57249;SDS011;43102;52.014;-0.680;2022-12-18T03:42:12;32.70;;;17.70;;
57249;SDS011;43102;52.014;-0.680;2022-12-18T03:43:07;32.70;;;17.70;;
57249;SDS011;43102;52.014;-0.680;2022-12-18T03:44:06;32.70;;;17.70;;
57249;SDS011;43102;52.014;-0.680;2022-12-18T03:46:06;32.70;;;17.70;;
57249;SDS011;43102;52.014;-0.680;2022-12-18T03:48:07;32.70;;;17.70;;
57249;SDS011;43102;52.014;-0.680;2022-12-18T03:49:06;32.70;;;17.70;;
57249;SDS011;43102;52.014;-0.680;2022-12-18T03:50:14;32.70;;;17.70;;
57249;SDS011;43102;52.014;-0.680;2022-12-18T03:51:05;39.70;;;20.80;;
57249;SDS011;43102;52.014;-0.680;2022-12-18T03:52:04;39.70;;;20.80;;
57249;SDS011;43102;52.014;-0.680;2022-12-18T03:53:05;39.70;;;20.80;;
57249;SDS011;43102;52.014;-0.680;2022-12-18T03:54:02;39.70;;;20.80;;
57249;SDS011;43102;52.014;-0.680;2022-12-18T03:55:02;39.70;;;20.80;;
57249;SDS011;43102;52.014;-0.680;2022-12-18T03:56:01;39.70;;;20.80;;
57249;SDS011;43102;52.014;-0.680;2022-12-18T03:57:05;39.70;;;20.80;;
57249;SDS011;43102;52.014;-0.680;2022-12-18T03:58:02;39.70;;;20.80;;
57249;SDS011;43102;52.014;-0.680;2022-12-18T03:59:02;39.70;;;20.80;;
57249;SDS011;43102;52.014;-0.680;2022-12-18T04:00:05;39.70;;;20.80;;
57249;SDS011;43102;52.014;-0.680;2022-12-18T04:01:03;39.70;;;20.80;;
57249;SDS011;43102;52.014;-0.680;2022-12-18T04:02:02;39.70;;;20.80;;
57249;SDS011;43102;52.014;-0.680;2022-12-18T04:03:01;39.70;;;20.80;;
57249;SDS011;43102;52.014;-0.680;2022-12-18T04:04:01;39.70;;;20.80;;
57249;SDS011;43102;52.014;-0.680;2022-12-18T04:05:03;39.70;;;20.80;;
57249;SDS011;43102;52.014;-0.680;2022-12-18T04:06:01;39.70;;;20.80;;
57249;SDS011;43102;52.014;-0.680;2022-12-18T04:07:00;39.70;;;20.80;;
57249;SDS011;43102;52.014;-0.680;2022-12-18T04:08:01;39.70;;;20.80;;
57249;SDS011;43102;52.014;-0.680;2022-12-18T04:09:00;39.70;;;20.80;;
57249;SDS011;43102;52.014;-0.680;2022-12-18T04:10:02;39.70;;;20.80;;
57249;SDS011;43102;52.014;-0.680;2022-12-18T04:11:01;39.70;;;20.80;;
57249;SDS011;43102;52.014;-0.680;2022-12-18T04:12:00;39.70;;;20.80;;
57249;SDS011;43102;52.014;-0.680;2022-12-18T04:13:00;39.70;;;20.80;;
57249;SDS011;43102;52.014;-0.680;2022-12-18T04:14:04;39.70;;;20.80;;
57249;SDS011;43102;52.014;-0.680;2022-12-18T04:15:00;39.70;;;20.80;;
57249;SDS011;43102;52.014;-0.680;2022-12-18T04:16:01;39.70;;;20.80;;
57249;SDS011;43102;52.014;-0.680;2022-12-18T04:17:00;39.70;;;20.80;;
57249;SDS011;43102;52.014;-0.680;2022-12-18T04:18:00;39.70;;;20.80;;
57249;SDS011;43102;52.014;-0.680;2022-12-18T04:19:00;39.70;;;20.80;;
57249;SDS011;43102;52.014;-0.680;2022-12-18T04:20:00;39.70;;;20.80;;
57249;SDS011;43102;52.014;-0.680;2022-12-18T04:21:01;41.80;;;21.80;;
57249;SDS011;43102;52.014;-0.680;2022-12-18T04:22:00;41.80;;;21.80;;
57249;SDS011;43102;52.014;-0.680;2022-12-18T04:23:00;41.80;;;21.80;;
57249;SDS011;43102;52.014;-0.680;2022-12-18T04:24:00;41.80;;;21.80;;
57249;SDS011;43102;52.014;-0.680;2022-12-18T04:25:00;41.80;;;21.80;;
57249;SDS011;43102;52.014;-0.680;2022-12-18T04:26:00;41.80;;;21.80;;
57249;SDS011;43102;52.014;-0.680;2022-12-18T04:27:00;41.80;;;21.80;;
57249;SDS011;43102;52.014;-0.680;2022-12-18T04:28:00;41.80;;;21.80;;
57249;SDS011;43102;52.014;-0.680;2022-12-18T04:29:00;41.80;;;21.80;;
57249;SDS011;43102;52.014;-0.680;2022-12-18T04:30:00;41.80;;;21.80;;
57249;SDS011;43102;52.014;-0.680;2022-12-18T04:31:00;41.80;;;21.80;;
57249;SDS011;43102;52.014;-0.680;2022-12-18T04:32:01;41.80;;;21.80;;
57249;SDS011;43102;52.014;-0.680;2022-12-18T04:33:00;41.80;;;21.80;;
57249;SDS011;43102;52.014;-0.680;2022-12-18T04:34:00;41.80;;;21.80;;
57249;SDS011;43102;52.014;-0.680;2022-12-18T04:35:00;41.80;;;21.80;;
57249;SDS011;43102;52.014;-0.680;2022-12-18T04:36:00;41.80;;;21.80;;
57249;SDS011;43102;52.014;-0.680;2022-12-18T04:37:00;41.80;;;21.80;;
57249;SDS011;43102;52.014;-0.680;2022-12-18T04:38:00;41.80;;;21.80;;
57249;SDS011;43102;52.014;-0.680;2022-12-18T04:39:00;41.80;;;21.80;;
57249;SDS011;43102;52.014;-0.680;2022-12-18T04:40:00;41.80;;;21.80;;
57249;SDS011;43102;52.014;-0.680;2022-12-18T04:41:00;41.80;;;21.80;;
57249;SDS011;43102;52.014;-0.680;2022-12-18T04:42:00;41.80;;;21.80;;
57249;SDS011;43102;52.014;-0.680;2022-12-18T04:43:00;41.80;;;21.80;;
57249;SDS011;43102;52.014;-0.680;2022-12-18T04:44:00;41.80;;;21.80;;
57249;SDS011;43102;52.014;-0.680;2022-12-18T04:45:00;41.80;;;21.80;;
57249;SDS011;43102;52.014;-0.680;2022-12-18T04:46:03;41.80;;;21.80;;
57249;SDS011;43102;52.014;-0.680;2022-12-18T04:47:00;41.80;;;21.80;;
57249;SDS011;43102;52.014;-0.680;2022-12-18T04:48:01;41.80;;;21.80;;
57249;SDS011;43102;52.014;-0.680;2022-12-18T04:49:00;41.80;;;21.80;;
57249;SDS011;43102;52.014;-0.680;2022-12-18T04:50:00;41.80;;;21.80;;
57249;SDS011;43102;52.014;-0.680;2022-12-18T04:51:00;42.10;;;20.90;;
57249;SDS011;43102;52.014;-0.680;2022-12-18T04:52:00;42.10;;;20.90;;
57249;SDS011;43102;52.014;-0.680;2022-12-18T04:53:00;42.10;;;20.90;;
57249;SDS011;43102;52.014;-0.680;2022-12-18T04:54:00;42.10;;;20.90;;
57249;SDS011;43102;52.014;-0.680;2022-12-18T04:55:00;42.10;;;20.90;;
57249;SDS011;43102;52.014;-0.680;2022-12-18T04:56:05;42.10;;;20.90;;
57249;SDS011;43102;52.014;-0.680;2022-12-18T04:57:00;42.10;;;20.90;;
57249;SDS011;43102;52.014;-0.680;2022-12-18T04:58:00;42.10;;;20.90;;
57249;SDS011;43102;52.014;-0.680;2022-12-18T04:59:00;42.10;;;20.90;;
57249;SDS011;43102;52.014;-0.680;2022-12-18T05:00:02;42.10;;;20.90;;
57249;SDS011;43102;52.014;-0.680;2022-12-18T05:01:00;42.10;;;20.90;;
57249;SDS011;43102;52.014;-0.680;2022-12-18T05:02:00;42.10;;;20.90;;
57249;SDS011;43102;52.014;-0.680;2022-12-18T05:03:01;42.10;;;20.90;;
57249;SDS011;43102;52.014;-0.680;2022-12-18T05:04:00;42.10;;;20.90;;
57249;SDS011;43102;52.014;-0.680;2022-12-18T05:05:00;42.10;;;20.90;;
57249;SDS011;43102;52.014;-0.680;2022-12-18T05:06:00;42.10;;;20.90;;
57249;SDS011;43102;52.014;-0.680;2022-12-18T05:07:00;42.10;;;20.90;;
57249;SDS011;43102;52.014;-0.680;2022-12-18T05:08:00;42.10;;;20.90;;
57249;SDS011;43102;52.014;-0.680;2022-12-18T05:09:00;42.10;;;20.90;;
57249;SDS011;43102;52.014;-0.680;2022-12-18T05:10:00;42.10;;;20.90;;
57249;SDS011;43102;52.014;-0.680;2022-12-18T05:11:05;42.10;;;20.90;;
57249;SDS011;43102;52.014;-0.680;2022-12-18T05:12:00;42.10;;;20.90;;
57249;SDS011;43102;52.014;-0.680;2022-12-18T05:13:01;42.10;;;20.90;;
57249;SDS011;43102;52.014;-0.680;2022-12-18T05:14:00;42.10;;;20.90;;
57249;SDS011;43102;52.014;-0.680;2022-12-18T05:15:02;42.10;;;20.90;;
57249;SDS011;43102;52.014;-0.680;2022-12-18T05:16:00;42.10;;;20.90;;
57249;SDS011;43102;52.014;-0.680;2022-12-18T05:17:01;42.10;;;20.90;;
57249;SDS011;43102;52.014;-0.680;2022-12-18T05:18:01;42.10;;;20.90;;
57249;SDS011;43102;52.014;-0.680;2022-12-18T05:19:00;42.10;;;20.90;;
57249;SDS011;43102;52.014;-0.680;2022-12-18T05:20:00;42.10;;;20.90;;
57249;SDS011;43102;52.014;-0.680;2022-12-18T05:21:00;35.00;;;18.30;;
57249;SDS011;43102;52.014;-0.680;2022-12-18T05:22:01;35.00;;;18.30;;
57249;SDS011;43102;52.014;-0.680;2022-12-18T05:23:01;35.00;;;18.30;;
57249;SDS011;43102;52.014;-0.680;2022-12-18T05:24:00;35.00;;;18.30;;
57249;SDS011;43102;52.014;-0.680;2022-12-18T05:25:00;35.00;;;18.30;;
57249;SDS011;43102;52.014;-0.680;2022-12-18T05:26:02;35.00;;;18.30;;
57249;SDS011;43102;52.014;-0.680;2022-12-18T05:27:00;35.00;;;18.30;;
57249;SDS011;43102;52.014;-0.680;2022-12-18T05:28:00;35.00;;;18.30;;
57249;SDS011;43102;52.014;-0.680;2022-12-18T05:29:00;35.00;;;18.30;;
57249;SDS011;43102;52.014;-0.680;2022-12-18T05:30:00;35.00;;;18.30;;
57249;SDS011;43102;52.014;-0.680;2022-12-18T05:31:03;35.00;;;18.30;;
57249;SDS011;43102;52.014;-0.680;2022-12-18T05:32:00;35.00;;;18.30;;
57249;SDS011;43102;52.014;-0.680;2022-12-18T05:33:00;35.00;;;18.30;;
57249;SDS011;43102;52.014;-0.680;2022-12-18T05:34:00;35.00;;;18.30;;
57249;SDS011;43102;52.014;-0.680;2022-12-18T05:35:00;35.00;;;18.30;;
57249;SDS011;43102;52.014;-0.680;2022-12-18T05:36:01;35.00;;;18.30;;
57249;SDS011;43102;52.014;-0.680;2022-12-18T05:37:00;35.00;;;18.30;;
57249;SDS011;43102;52.014;-0.680;2022-12-18T05:38:00;35.00;;;18.30;;
57249;SDS011;43102;52.014;-0.680;2022-12-18T05:39:00;35.00;;;18.30;;
57249;SDS011;43102;52.014;-0.680;2022-12-18T05:40:00;35.00;;;18.30;;
57249;SDS011;43102;52.014;-0.680;2022-12-18T05:41:00;35.00;;;18.30;;
57249;SDS011;43102;52.014;-0.680;2022-12-18T05:42:00;35.00;;;18.30;;
57249;SDS011;43102;52.014;-0.680;2022-12-18T05:43:01;35.00;;;18.30;;
57249;SDS011;43102;52.014;-0.680;2022-12-18T05:44:00;35.00;;;18.30;;
57249;SDS011;43102;52.014;-0.680;2022-12-18T05:45:00;35.00;;;18.30;;
57249;SDS011;43102;52.014;-0.680;2022-12-18T05:46:04;35.00;;;18.30;;
57249;SDS011;43102;52.014;-0.680;2022-12-18T05:47:00;35.00;;;18.30;;
57249;SDS011;43102;52.014;-0.680;2022-12-18T05:48:00;35.00;;;18.30;;
57249;SDS011;43102;52.014;-0.680;2022-12-18T05:49:01;35.00;;;18.30;;
57249;SDS011;43102;52.014;-0.680;2022-12-18T05:50:00;35.00;;;18.30;;
57249;SDS011;43102;52.014;-0.680;2022-12-18T05:51:11;30.00;;;16.00;;
57249;SDS011;43102;52.014;-0.680;2022-12-18T05:52:00;30.00;;;16.00;;
57249;SDS011;43102;52.014;-0.680;2022-12-18T05:53:00;30.00;;;16.00;;
57249;SDS011;43102;52.014;-0.680;2022-12-18T05:54:00;30.00;;;16.00;;
57249;SDS011;43102;52.014;-0.680;2022-12-18T05:55:00;30.00;;;16.00;;
57249;SDS011;43102;52.014;-0.680;2022-12-18T05:56:02;30.00;;;16.00;;
57249;SDS011;43102;52.014;-0.680;2022-12-18T05:57:00;30.00;;;16.00;;
57249;SDS011;43102;52.014;-0.680;2022-12-18T05:58:00;30.00;;;16.00;;
57249;SDS011;43102;52.014;-0.680;2022-12-18T05:59:00;30.00;;;16.00;;
57249;SDS011;43102;52.014;-0.680;2022-12-18T06:00:00;30.00;;;16.00;;
57249;SDS011;43102;52.014;-0.680;2022-12-18T06:01:12;30.00;;;16.00;;
57249;SDS011;43102;52.014;-0.680;2022-12-18T06:02:01;30.00;;;16.00;;